sensor_id;sensor_type;location;lat;lon;timestamp;P1;durP1;ratioP1;P2;durP2;ratioP2
25988;SDS011;13778;48.236;9.894;2023-10-09T00:02:12;26.25;;;9.27;;
25988;SDS011;13778;48.236;9.894;2023-10-09T00:05:05;26.55;;;8.32;;
25988;SDS011;13778;48.236;9.894;2023-10-09T00:07:59;28.05;;;9.65;;
25988;SDS011;13778;48.236;9.894;2023-10-09T00:10:52;18.60;;;8.43;;
25988;SDS011;13778;48.236;9.894;2023-10-09T00:13:43;18.65;;;8.60;;
25988;SDS011;13778;48.236;9.894;2023-10-09T00:16:39;18.05;;;8.25;;
25988;SDS011;13778;48.236;9.894;2023-10-09T00:19:36;22.65;;;9.52;;
25988;SDS011;13778;48.236;9.894;2023-10-09T00:22:28;17.23;;;7.68;;
25988;SDS011;13778;48.236;9.894;2023-10-09T00:25:19;23.88;;;8.50;;
25988;SDS011;13778;48.236;9.894;2023-10-09T00:28:13;22.38;;;8.55;;
25988;SDS011;13778;48.236;9.894;2023-10-09T00:31:04;19.73;;;8.10;;
25988;SDS011;13778;48.236;9.894;2023-10-09T00:33:56;19.48;;;8.05;;
25988;SDS011;13778;48.236;9.894;2023-10-09T00:36:52;21.67;;;8.85;;
25988;SDS011;13778;48.236;9.894;2023-10-09T00:39:45;18.15;;;8.45;;
25988;SDS011;13778;48.236;9.894;2023-10-09T00:42:37;20.10;;;8.80;;
25988;SDS011;13778;48.236;9.894;2023-10-09T00:45:28;23.92;;;8.65;;
25988;SDS011;13778;48.236;9.894;2023-10-09T00:48:21;18.65;;;8.48;;
25988;SDS011;13778;48.236;9.894;2023-10-09T00:51:20;25.75;;;7.93;;
25988;SDS011;13778;48.236;9.894;2023-10-09T00:54:12;21.60;;;7.63;;
25988;SDS011;13778;48.236;9.894;2023-10-09T00:57:05;28.73;;;8.30;;
25988;SDS011;13778;48.236;9.894;2023-10-09T00:59:56;17.00;;;8.05;;
25988;SDS011;13778;48.236;9.894;2023-10-09T01:02:49;27.15;;;9.32;;
25988;SDS011;13778;48.236;9.894;2023-10-09T01:06:00;22.45;;;7.40;;
25988;SDS011;13778;48.236;9.894;2023-10-09T01:09:05;19.85;;;8.63;;
25988;SDS011;13778;48.236;9.894;2023-10-09T01:11:59;23.48;;;8.18;;
25988;SDS011;13778;48.236;9.894;2023-10-09T01:14:54;24.55;;;8.88;;
25988;SDS011;13778;48.236;9.894;2023-10-09T01:17:45;24.65;;;8.82;;
25988;SDS011;13778;48.236;9.894;2023-10-09T01:20:35;30.33;;;9.10;;
25988;SDS011;13778;48.236;9.894;2023-10-09T01:23:32;20.77;;;8.65;;
25988;SDS011;13778;48.236;9.894;2023-10-09T01:26:22;20.63;;;8.57;;
25988;SDS011;13778;48.236;9.894;2023-10-09T01:29:13;24.17;;;7.63;;
25988;SDS011;13778;48.236;9.894;2023-10-09T01:32:08;28.17;;;8.45;;
25988;SDS011;13778;48.236;9.894;2023-10-09T01:35:06;18.52;;;8.13;;
25988;SDS011;13778;48.236;9.894;2023-10-09T01:38:09;22.40;;;8.98;;
25988;SDS011;13778;48.236;9.894;2023-10-09T01:41:04;17.83;;;8.10;;
25988;SDS011;13778;48.236;9.894;2023-10-09T01:43:57;19.48;;;8.20;;
25988;SDS011;13778;48.236;9.894;2023-10-09T01:46:50;25.27;;;8.30;;
25988;SDS011;13778;48.236;9.894;2023-10-09T01:49:43;19.30;;;8.75;;
25988;SDS011;13778;48.236;9.894;2023-10-09T01:52:38;21.10;;;8.60;;
25988;SDS011;13778;48.236;9.894;2023-10-09T01:55:29;24.92;;;8.02;;
25988;SDS011;13778;48.236;9.894;2023-10-09T01:58:24;29.77;;;8.02;;
25988;SDS011;13778;48.236;9.894;2023-10-09T02:01:21;26.38;;;8.15;;
25988;SDS011;13778;48.236;9.894;2023-10-09T02:04:12;21.48;;;7.20;;
25988;SDS011;13778;48.236;9.894;2023-10-09T02:07:03;23.48;;;8.23;;
25988;SDS011;13778;48.236;9.894;2023-10-09T02:09:57;16.92;;;7.32;;
25988;SDS011;13778;48.236;9.894;2023-10-09T02:12:47;21.52;;;7.43;;
25988;SDS011;13778;48.236;9.894;2023-10-09T02:15:43;24.67;;;7.78;;
25988;SDS011;13778;48.236;9.894;2023-10-09T02:18:47;22.63;;;9.10;;
25988;SDS011;13778;48.236;9.894;2023-10-09T02:21:43;27.55;;;8.60;;
25988;SDS011;13778;48.236;9.894;2023-10-09T02:24:34;23.23;;;7.63;;
25988;SDS011;13778;48.236;9.894;2023-10-09T02:27:41;22.35;;;7.43;;
25988;SDS011;13778;48.236;9.894;2023-10-09T02:30:44;20.50;;;7.60;;
25988;SDS011;13778;48.236;9.894;2023-10-09T02:33:36;22.10;;;7.50;;
25988;SDS011;13778;48.236;9.894;2023-10-09T02:36:28;30.92;;;8.18;;
25988;SDS011;13778;48.236;9.894;2023-10-09T02:39:18;21.65;;;8.05;;
25988;SDS011;13778;48.236;9.894;2023-10-09T02:42:12;20.30;;;7.15;;
25988;SDS011;13778;48.236;9.894;2023-10-09T02:45:12;21.17;;;7.72;;
25988;SDS011;13778;48.236;9.894;2023-10-09T02:48:15;18.20;;;7.90;;
25988;SDS011;13778;48.236;9.894;2023-10-09T02:51:08;26.48;;;7.93;;
25988;SDS011;13778;48.236;9.894;2023-10-09T02:54:05;23.02;;;7.53;;
25988;SDS011;13778;48.236;9.894;2023-10-09T02:57:07;26.67;;;7.95;;
25988;SDS011;13778;48.236;9.894;2023-10-09T03:00:04;25.70;;;8.25;;
25988;SDS011;13778;48.236;9.894;2023-10-09T03:02:58;26.25;;;8.43;;
25988;SDS011;13778;48.236;9.894;2023-10-09T03:05:50;14.13;;;6.97;;
25988;SDS011;13778;48.236;9.894;2023-10-09T03:08:40;34.58;;;7.38;;
25988;SDS011;13778;48.236;9.894;2023-10-09T03:11:31;20.05;;;7.10;;
25988;SDS011;13778;48.236;9.894;2023-10-09T03:14:21;22.42;;;8.75;;
25988;SDS011;13778;48.236;9.894;2023-10-09T03:17:15;26.50;;;7.85;;
25988;SDS011;13778;48.236;9.894;2023-10-09T03:20:06;20.15;;;7.55;;
25988;SDS011;13778;48.236;9.894;2023-10-09T03:23:03;28.40;;;8.32;;
25988;SDS011;13778;48.236;9.894;2023-10-09T03:25:55;19.17;;;7.95;;
25988;SDS011;13778;48.236;9.894;2023-10-09T03:28:47;27.85;;;7.93;;
25988;SDS011;13778;48.236;9.894;2023-10-09T03:31:38;22.35;;;7.63;;
25988;SDS011;13778;48.236;9.894;2023-10-09T03:34:31;17.65;;;8.00;;
25988;SDS011;13778;48.236;9.894;2023-10-09T03:37:22;24.35;;;9.13;;
25988;SDS011;13778;48.236;9.894;2023-10-09T03:40:24;26.67;;;8.70;;
25988;SDS011;13778;48.236;9.894;2023-10-09T03:46:05;28.23;;;8.38;;
25988;SDS011;13778;48.236;9.894;2023-10-09T03:49:03;18.13;;;7.05;;
25988;SDS011;13778;48.236;9.894;2023-10-09T03:52:00;14.05;;;6.50;;
25988;SDS011;13778;48.236;9.894;2023-10-09T03:54:51;21.40;;;7.27;;
25988;SDS011;13778;48.236;9.894;2023-10-09T03:57:42;23.33;;;7.82;;
25988;SDS011;13778;48.236;9.894;2023-10-09T04:00:34;24.33;;;6.97;;
25988;SDS011;13778;48.236;9.894;2023-10-09T04:03:34;28.55;;;8.00;;
25988;SDS011;13778;48.236;9.894;2023-10-09T04:06:26;19.13;;;7.45;;
25988;SDS011;13778;48.236;9.894;2023-10-09T04:09:21;22.55;;;7.63;;
25988;SDS011;13778;48.236;9.894;2023-10-09T04:12:25;20.77;;;7.88;;
25988;SDS011;13778;48.236;9.894;2023-10-09T04:15:17;19.98;;;7.15;;
25988;SDS011;13778;48.236;9.894;2023-10-09T04:18:12;26.80;;;6.85;;
25988;SDS011;13778;48.236;9.894;2023-10-09T04:21:05;27.73;;;7.65;;
25988;SDS011;13778;48.236;9.894;2023-10-09T04:24:23;15.23;;;6.47;;
25988;SDS011;13778;48.236;9.894;2023-10-09T04:27:13;18.55;;;6.82;;
25988;SDS011;13778;48.236;9.894;2023-10-09T04:30:06;21.40;;;6.80;;
25988;SDS011;13778;48.236;9.894;2023-10-09T04:33:03;21.00;;;7.00;;
25988;SDS011;13778;48.236;9.894;2023-10-09T04:36:01;21.75;;;6.28;;
25988;SDS011;13778;48.236;9.894;2023-10-09T04:39:07;22.50;;;6.75;;
25988;SDS011;13778;48.236;9.894;2023-10-09T04:42:24;22.80;;;6.63;;
25988;SDS011;13778;48.236;9.894;2023-10-09T04:45:27;19.33;;;6.68;;
25988;SDS011;13778;48.236;9.894;2023-10-09T04:48:48;22.45;;;6.60;;
25988;SDS011;13778;48.236;9.894;2023-10-09T04:51:41;25.85;;;6.90;;
25988;SDS011;13778;48.236;9.894;2023-10-09T04:54:48;30.88;;;6.72;;
25988;SDS011;13778;48.236;9.894;2023-10-09T04:58:05;20.63;;;6.35;;
25988;SDS011;13778;48.236;9.894;2023-10-09T05:01:02;24.17;;;7.18;;
25988;SDS011;13778;48.236;9.894;2023-10-09T05:04:02;32.38;;;7.22;;
25988;SDS011;13778;48.236;9.894;2023-10-09T05:07:04;22.85;;;7.13;;
25988;SDS011;13778;48.236;9.894;2023-10-09T05:10:11;21.00;;;6.72;;
25988;SDS011;13778;48.236;9.894;2023-10-09T05:13:05;19.02;;;6.60;;
25988;SDS011;13778;48.236;9.894;2023-10-09T05:16:04;29.15;;;7.22;;
25988;SDS011;13778;48.236;9.894;2023-10-09T05:18:54;18.05;;;6.88;;
25988;SDS011;13778;48.236;9.894;2023-10-09T05:21:47;24.45;;;6.25;;
25988;SDS011;13778;48.236;9.894;2023-10-09T05:24:37;22.85;;;6.80;;
25988;SDS011;13778;48.236;9.894;2023-10-09T05:27:35;22.00;;;6.72;;
25988;SDS011;13778;48.236;9.894;2023-10-09T05:30:39;15.20;;;6.60;;
25988;SDS011;13778;48.236;9.894;2023-10-09T05:33:30;24.80;;;6.60;;
25988;SDS011;13778;48.236;9.894;2023-10-09T05:36:22;20.55;;;6.55;;
25988;SDS011;13778;48.236;9.894;2023-10-09T05:39:25;18.73;;;6.45;;
25988;SDS011;13778;48.236;9.894;2023-10-09T05:42:30;27.17;;;7.22;;
25988;SDS011;13778;48.236;9.894;2023-10-09T05:45:31;23.17;;;6.40;;
25988;SDS011;13778;48.236;9.894;2023-10-09T05:48:39;19.33;;;6.20;;
25988;SDS011;13778;48.236;9.894;2023-10-09T05:51:43;21.20;;;6.75;;
25988;SDS011;13778;48.236;9.894;2023-10-09T05:54:34;18.63;;;6.63;;
25988;SDS011;13778;48.236;9.894;2023-10-09T05:57:42;25.02;;;6.53;;
25988;SDS011;13778;48.236;9.894;2023-10-09T06:00:50;24.25;;;5.70;;
25988;SDS011;13778;48.236;9.894;2023-10-09T06:04:16;28.15;;;6.97;;
25988;SDS011;13778;48.236;9.894;2023-10-09T06:07:06;16.17;;;6.28;;
25988;SDS011;13778;48.236;9.894;2023-10-09T06:10:05;16.75;;;6.72;;
25988;SDS011;13778;48.236;9.894;2023-10-09T06:13:07;22.90;;;6.38;;
25988;SDS011;13778;48.236;9.894;2023-10-09T06:16:17;20.67;;;6.30;;
25988;SDS011;13778;48.236;9.894;2023-10-09T06:19:20;24.95;;;7.25;;
25988;SDS011;13778;48.236;9.894;2023-10-09T06:22:16;17.38;;;6.35;;
25988;SDS011;13778;48.236;9.894;2023-10-09T06:25:30;22.55;;;6.72;;
25988;SDS011;13778;48.236;9.894;2023-10-09T06:28:22;19.58;;;7.07;;
25988;SDS011;13778;48.236;9.894;2023-10-09T06:31:22;25.08;;;7.55;;
25988;SDS011;13778;48.236;9.894;2023-10-09T06:34:38;22.30;;;7.10;;
25988;SDS011;13778;48.236;9.894;2023-10-09T06:37:35;16.58;;;6.43;;
25988;SDS011;13778;48.236;9.894;2023-10-09T06:40:27;21.60;;;7.00;;
25988;SDS011;13778;48.236;9.894;2023-10-09T06:43:36;25.27;;;6.65;;
25988;SDS011;13778;48.236;9.894;2023-10-09T06:46:32;22.10;;;7.03;;
25988;SDS011;13778;48.236;9.894;2023-10-09T06:49:33;19.17;;;6.30;;
25988;SDS011;13778;48.236;9.894;2023-10-09T06:52:25;22.35;;;6.35;;
25988;SDS011;13778;48.236;9.894;2023-10-09T06:55:35;23.40;;;6.97;;
25988;SDS011;13778;48.236;9.894;2023-10-09T06:58:38;17.90;;;7.03;;
25988;SDS011;13778;48.236;9.894;2023-10-09T07:01:31;23.88;;;5.95;;
25988;SDS011;13778;48.236;9.894;2023-10-09T07:04:31;19.73;;;6.20;;
25988;SDS011;13778;48.236;9.894;2023-10-09T07:07:36;23.40;;;6.63;;
25988;SDS011;13778;48.236;9.894;2023-10-09T07:10:39;21.50;;;6.45;;
25988;SDS011;13778;48.236;9.894;2023-10-09T07:13:28;15.82;;;6.03;;
25988;SDS011;13778;48.236;9.894;2023-10-09T07:16:27;24.67;;;7.00;;
25988;SDS011;13778;48.236;9.894;2023-10-09T07:19:27;22.02;;;6.05;;
25988;SDS011;13778;48.236;9.894;2023-10-09T07:22:24;27.92;;;6.75;;
25988;SDS011;13778;48.236;9.894;2023-10-09T07:25:19;22.30;;;5.85;;
25988;SDS011;13778;48.236;9.894;2023-10-09T07:28:29;22.48;;;6.85;;
25988;SDS011;13778;48.236;9.894;2023-10-09T07:31:26;28.92;;;6.13;;
25988;SDS011;13778;48.236;9.894;2023-10-09T07:34:20;28.70;;;7.07;;
25988;SDS011;13778;48.236;9.894;2023-10-09T07:37:40;22.90;;;6.80;;
25988;SDS011;13778;48.236;9.894;2023-10-09T07:40:32;23.63;;;6.68;;
25988;SDS011;13778;48.236;9.894;2023-10-09T07:43:41;24.00;;;6.65;;
25988;SDS011;13778;48.236;9.894;2023-10-09T07:46:34;27.05;;;6.43;;
25988;SDS011;13778;48.236;9.894;2023-10-09T07:49:42;18.23;;;6.15;;
25988;SDS011;13778;48.236;9.894;2023-10-09T07:52:37;28.20;;;6.72;;
25988;SDS011;13778;48.236;9.894;2023-10-09T07:55:32;43.80;;;9.07;;
25988;SDS011;13778;48.236;9.894;2023-10-09T07:58:28;31.48;;;8.27;;
25988;SDS011;13778;48.236;9.894;2023-10-09T08:01:19;23.60;;;7.00;;
25988;SDS011;13778;48.236;9.894;2023-10-09T08:04:24;21.90;;;6.28;;
25988;SDS011;13778;48.236;9.894;2023-10-09T08:07:28;22.30;;;6.45;;
25988;SDS011;13778;48.236;9.894;2023-10-09T08:10:23;20.17;;;6.90;;
25988;SDS011;13778;48.236;9.894;2023-10-09T08:13:31;21.27;;;7.13;;
25988;SDS011;13778;48.236;9.894;2023-10-09T08:16:45;18.88;;;5.93;;
25988;SDS011;13778;48.236;9.894;2023-10-09T08:19:36;21.33;;;7.18;;
25988;SDS011;13778;48.236;9.894;2023-10-09T08:22:42;26.95;;;6.97;;
25988;SDS011;13778;48.236;9.894;2023-10-09T08:25:41;24.23;;;7.60;;
25988;SDS011;13778;48.236;9.894;2023-10-09T08:28:46;19.48;;;6.20;;
25988;SDS011;13778;48.236;9.894;2023-10-09T08:31:35;27.23;;;6.45;;
25988;SDS011;13778;48.236;9.894;2023-10-09T08:34:34;18.48;;;6.65;;
25988;SDS011;13778;48.236;9.894;2023-10-09T08:37:37;18.33;;;6.30;;
25988;SDS011;13778;48.236;9.894;2023-10-09T08:40:30;21.58;;;6.32;;
25988;SDS011;13778;48.236;9.894;2023-10-09T08:43:22;21.38;;;5.90;;
25988;SDS011;13778;48.236;9.894;2023-10-09T08:46:12;25.92;;;6.75;;
25988;SDS011;13778;48.236;9.894;2023-10-09T08:49:07;25.17;;;6.20;;
25988;SDS011;13778;48.236;9.894;2023-10-09T08:51:59;21.85;;;7.10;;
25988;SDS011;13778;48.236;9.894;2023-10-09T08:54:52;21.98;;;6.55;;
25988;SDS011;13778;48.236;9.894;2023-10-09T08:57:44;22.25;;;6.65;;
25988;SDS011;13778;48.236;9.894;2023-10-09T09:00:35;21.30;;;6.25;;
25988;SDS011;13778;48.236;9.894;2023-10-09T09:03:26;18.40;;;6.47;;
25988;SDS011;13778;48.236;9.894;2023-10-09T09:06:17;15.43;;;6.13;;
25988;SDS011;13778;48.236;9.894;2023-10-09T09:09:11;19.33;;;6.13;;
25988;SDS011;13778;48.236;9.894;2023-10-09T09:12:04;18.67;;;6.40;;
25988;SDS011;13778;48.236;9.894;2023-10-09T09:14:58;18.17;;;6.32;;
25988;SDS011;13778;48.236;9.894;2023-10-09T09:17:49;22.58;;;6.28;;
25988;SDS011;13778;48.236;9.894;2023-10-09T09:20:40;21.52;;;6.15;;
25988;SDS011;13778;48.236;9.894;2023-10-09T09:23:34;22.05;;;6.68;;
25988;SDS011;13778;48.236;9.894;2023-10-09T09:26:34;14.45;;;5.55;;
25988;SDS011;13778;48.236;9.894;2023-10-09T09:29:38;22.30;;;7.03;;
25988;SDS011;13778;48.236;9.894;2023-10-09T09:32:30;21.48;;;6.65;;
25988;SDS011;13778;48.236;9.894;2023-10-09T09:35:25;27.30;;;7.00;;
25988;SDS011;13778;48.236;9.894;2023-10-09T09:38:16;17.80;;;6.72;;
25988;SDS011;13778;48.236;9.894;2023-10-09T09:41:08;26.15;;;6.75;;
25988;SDS011;13778;48.236;9.894;2023-10-09T09:43:58;17.05;;;6.05;;
25988;SDS011;13778;48.236;9.894;2023-10-09T09:46:49;20.15;;;6.97;;
25988;SDS011;13778;48.236;9.894;2023-10-09T09:49:44;24.27;;;6.82;;
25988;SDS011;13778;48.236;9.894;2023-10-09T09:52:34;28.92;;;7.57;;
25988;SDS011;13778;48.236;9.894;2023-10-09T09:55:29;22.02;;;5.93;;
25988;SDS011;13778;48.236;9.894;2023-10-09T09:58:23;25.67;;;7.55;;
25988;SDS011;13778;48.236;9.894;2023-10-09T10:01:15;24.92;;;6.38;;
25988;SDS011;13778;48.236;9.894;2023-10-09T10:04:15;24.85;;;7.72;;
25988;SDS011;13778;48.236;9.894;2023-10-09T10:07:11;26.63;;;6.40;;
25988;SDS011;13778;48.236;9.894;2023-10-09T10:10:17;26.88;;;7.30;;
25988;SDS011;13778;48.236;9.894;2023-10-09T10:16:28;24.92;;;7.47;;
25988;SDS011;13778;48.236;9.894;2023-10-09T10:19:23;24.50;;;6.95;;
25988;SDS011;13778;48.236;9.894;2023-10-09T10:22:24;19.88;;;7.05;;
25988;SDS011;13778;48.236;9.894;2023-10-09T10:25:32;20.10;;;5.65;;
25988;SDS011;13778;48.236;9.894;2023-10-09T10:28:25;18.20;;;5.72;;
25988;SDS011;13778;48.236;9.894;2023-10-09T10:31:37;23.95;;;6.63;;
25988;SDS011;13778;48.236;9.894;2023-10-09T10:34:52;24.38;;;6.22;;
25988;SDS011;13778;48.236;9.894;2023-10-09T10:37:46;18.45;;;6.22;;
25988;SDS011;13778;48.236;9.894;2023-10-09T10:40:39;15.05;;;5.32;;
25988;SDS011;13778;48.236;9.894;2023-10-09T10:43:35;25.58;;;7.43;;
25988;SDS011;13778;48.236;9.894;2023-10-09T10:46:40;26.67;;;5.93;;
25988;SDS011;13778;48.236;9.894;2023-10-09T10:49:33;23.05;;;5.72;;
25988;SDS011;13778;48.236;9.894;2023-10-09T10:52:27;27.85;;;7.55;;
25988;SDS011;13778;48.236;9.894;2023-10-09T10:55:33;28.20;;;10.60;;
25988;SDS011;13778;48.236;9.894;2023-10-09T10:58:37;31.73;;;6.82;;
25988;SDS011;13778;48.236;9.894;2023-10-09T11:01:36;22.45;;;6.57;;
25988;SDS011;13778;48.236;9.894;2023-10-09T11:04:45;20.40;;;5.93;;
25988;SDS011;13778;48.236;9.894;2023-10-09T11:07:43;21.58;;;5.60;;
25988;SDS011;13778;48.236;9.894;2023-10-09T11:10:35;21.63;;;6.68;;
25988;SDS011;13778;48.236;9.894;2023-10-09T11:13:39;24.52;;;5.85;;
25988;SDS011;13778;48.236;9.894;2023-10-09T11:16:42;31.08;;;7.53;;
25988;SDS011;13778;48.236;9.894;2023-10-09T11:19:36;20.13;;;6.05;;
25988;SDS011;13778;48.236;9.894;2023-10-09T11:22:29;21.63;;;6.22;;
25988;SDS011;13778;48.236;9.894;2023-10-09T11:25:25;18.95;;;5.90;;
25988;SDS011;13778;48.236;9.894;2023-10-09T11:28:18;22.40;;;6.30;;
25988;SDS011;13778;48.236;9.894;2023-10-09T11:31:31;20.73;;;6.32;;
25988;SDS011;13778;48.236;9.894;2023-10-09T11:34:23;17.83;;;5.78;;
25988;SDS011;13778;48.236;9.894;2023-10-09T11:37:19;20.88;;;5.72;;
25988;SDS011;13778;48.236;9.894;2023-10-09T11:40:28;16.77;;;5.25;;
25988;SDS011;13778;48.236;9.894;2023-10-09T11:43:23;18.58;;;6.25;;
25988;SDS011;13778;48.236;9.894;2023-10-09T11:46:33;24.83;;;5.72;;
25988;SDS011;13778;48.236;9.894;2023-10-09T11:49:27;18.38;;;4.90;;
25988;SDS011;13778;48.236;9.894;2023-10-09T11:52:33;21.13;;;6.45;;
25988;SDS011;13778;48.236;9.894;2023-10-09T11:55:27;17.13;;;6.07;;
25988;SDS011;13778;48.236;9.894;2023-10-09T11:58:23;23.17;;;5.80;;
25988;SDS011;13778;48.236;9.894;2023-10-09T12:04:06;19.17;;;6.28;;
25988;SDS011;13778;48.236;9.894;2023-10-09T12:06:58;16.83;;;5.63;;
25988;SDS011;13778;48.236;9.894;2023-10-09T12:09:56;22.08;;;6.85;;
25988;SDS011;13778;48.236;9.894;2023-10-09T12:12:47;17.13;;;6.25;;
25988;SDS011;13778;48.236;9.894;2023-10-09T12:15:39;18.10;;;5.25;;
25988;SDS011;13778;48.236;9.894;2023-10-09T12:18:30;17.98;;;5.53;;
25988;SDS011;13778;48.236;9.894;2023-10-09T12:21:24;22.70;;;5.85;;
25988;SDS011;13778;48.236;9.894;2023-10-09T12:24:16;17.30;;;5.93;;
25988;SDS011;13778;48.236;9.894;2023-10-09T12:27:08;15.35;;;5.43;;
25988;SDS011;13778;48.236;9.894;2023-10-09T12:30:00;18.40;;;6.05;;
25988;SDS011;13778;48.236;9.894;2023-10-09T12:32:54;23.45;;;6.88;;
25988;SDS011;13778;48.236;9.894;2023-10-09T12:35:46;14.25;;;5.57;;
25988;SDS011;13778;48.236;9.894;2023-10-09T12:38:37;14.40;;;4.97;;
25988;SDS011;13778;48.236;9.894;2023-10-09T12:41:35;21.33;;;5.45;;
25988;SDS011;13778;48.236;9.894;2023-10-09T12:44:30;23.95;;;5.78;;
25988;SDS011;13778;48.236;9.894;2023-10-09T12:47:20;14.30;;;5.68;;
25988;SDS011;13778;48.236;9.894;2023-10-09T12:50:12;15.82;;;5.82;;
25988;SDS011;13778;48.236;9.894;2023-10-09T12:53:03;20.92;;;5.53;;
25988;SDS011;13778;48.236;9.894;2023-10-09T12:55:55;19.88;;;6.35;;
25988;SDS011;13778;48.236;9.894;2023-10-09T12:58:46;14.43;;;5.55;;
25988;SDS011;13778;48.236;9.894;2023-10-09T13:01:42;25.58;;;6.10;;
25988;SDS011;13778;48.236;9.894;2023-10-09T13:04:33;19.95;;;5.70;;
25988;SDS011;13778;48.236;9.894;2023-10-09T13:07:25;21.00;;;5.37;;
25988;SDS011;13778;48.236;9.894;2023-10-09T13:10:15;25.95;;;6.05;;
25988;SDS011;13778;48.236;9.894;2023-10-09T13:13:06;19.08;;;5.28;;
25988;SDS011;13778;48.236;9.894;2023-10-09T13:15:56;29.20;;;7.88;;
25988;SDS011;13778;48.236;9.894;2023-10-09T13:18:47;17.20;;;6.72;;
25988;SDS011;13778;48.236;9.894;2023-10-09T13:21:39;18.25;;;5.43;;
25988;SDS011;13778;48.236;9.894;2023-10-09T13:24:32;25.92;;;7.05;;
25988;SDS011;13778;48.236;9.894;2023-10-09T13:27:28;23.92;;;6.28;;
25988;SDS011;13778;48.236;9.894;2023-10-09T13:30:23;20.50;;;6.25;;
25988;SDS011;13778;48.236;9.894;2023-10-09T13:33:14;17.00;;;5.63;;
25988;SDS011;13778;48.236;9.894;2023-10-09T13:36:06;21.17;;;5.68;;
25988;SDS011;13778;48.236;9.894;2023-10-09T13:39:05;28.58;;;7.03;;
25988;SDS011;13778;48.236;9.894;2023-10-09T13:42:14;22.98;;;5.80;;
25988;SDS011;13778;48.236;9.894;2023-10-09T13:45:05;23.00;;;6.32;;
25988;SDS011;13778;48.236;9.894;2023-10-09T13:48:05;15.63;;;6.30;;
25988;SDS011;13778;48.236;9.894;2023-10-09T13:51:00;18.98;;;5.43;;
25988;SDS011;13778;48.236;9.894;2023-10-09T13:53:56;21.70;;;6.05;;
25988;SDS011;13778;48.236;9.894;2023-10-09T13:56:47;37.38;;;6.90;;
25988;SDS011;13778;48.236;9.894;2023-10-09T13:59:43;20.90;;;5.93;;
25988;SDS011;13778;48.236;9.894;2023-10-09T14:02:38;21.15;;;6.40;;
25988;SDS011;13778;48.236;9.894;2023-10-09T14:05:28;23.13;;;6.13;;
25988;SDS011;13778;48.236;9.894;2023-10-09T14:08:20;21.33;;;5.72;;
25988;SDS011;13778;48.236;9.894;2023-10-09T14:11:11;19.13;;;6.50;;
25988;SDS011;13778;48.236;9.894;2023-10-09T14:14:02;27.02;;;6.13;;
25988;SDS011;13778;48.236;9.894;2023-10-09T14:16:54;21.23;;;5.45;;
25988;SDS011;13778;48.236;9.894;2023-10-09T14:19:47;24.83;;;8.32;;
25988;SDS011;13778;48.236;9.894;2023-10-09T14:22:37;17.95;;;5.97;;
25988;SDS011;13778;48.236;9.894;2023-10-09T14:25:28;16.63;;;5.70;;
25988;SDS011;13778;48.236;9.894;2023-10-09T14:28:19;17.33;;;6.82;;
25988;SDS011;13778;48.236;9.894;2023-10-09T14:31:09;15.18;;;5.65;;
25988;SDS011;13778;48.236;9.894;2023-10-09T14:34:02;23.95;;;5.93;;
25988;SDS011;13778;48.236;9.894;2023-10-09T14:39:43;24.42;;;8.45;;
25988;SDS011;13778;48.236;9.894;2023-10-09T14:42:37;20.50;;;6.30;;
25988;SDS011;13778;48.236;9.894;2023-10-09T14:45:28;21.20;;;6.53;;
25988;SDS011;13778;48.236;9.894;2023-10-09T14:48:18;28.00;;;5.95;;
25988;SDS011;13778;48.236;9.894;2023-10-09T14:51:16;24.17;;;6.93;;
25988;SDS011;13778;48.236;9.894;2023-10-09T14:54:06;22.67;;;5.90;;
25988;SDS011;13778;48.236;9.894;2023-10-09T14:56:57;27.13;;;5.33;;
25988;SDS011;13778;48.236;9.894;2023-10-09T14:59:48;21.08;;;5.75;;
25988;SDS011;13778;48.236;9.894;2023-10-09T15:02:38;22.60;;;5.43;;
25988;SDS011;13778;48.236;9.894;2023-10-09T15:05:29;12.23;;;5.40;;
25988;SDS011;13778;48.236;9.894;2023-10-09T15:08:22;25.33;;;6.93;;
25988;SDS011;13778;48.236;9.894;2023-10-09T15:11:12;18.70;;;5.40;;
25988;SDS011;13778;48.236;9.894;2023-10-09T15:14:03;25.92;;;6.20;;
25988;SDS011;13778;48.236;9.894;2023-10-09T15:16:55;18.52;;;6.05;;
25988;SDS011;13778;48.236;9.894;2023-10-09T15:19:45;22.35;;;5.93;;
25988;SDS011;13778;48.236;9.894;2023-10-09T15:22:36;21.55;;;5.90;;
25988;SDS011;13778;48.236;9.894;2023-10-09T15:25:28;18.85;;;5.65;;
25988;SDS011;13778;48.236;9.894;2023-10-09T15:31:08;21.48;;;5.88;;
25988;SDS011;13778;48.236;9.894;2023-10-09T15:34:00;17.23;;;6.90;;
25988;SDS011;13778;48.236;9.894;2023-10-09T15:36:51;25.73;;;6.77;;
25988;SDS011;13778;48.236;9.894;2023-10-09T15:39:42;26.00;;;5.70;;
25988;SDS011;13778;48.236;9.894;2023-10-09T15:42:34;26.05;;;5.80;;
25988;SDS011;13778;48.236;9.894;2023-10-09T15:45:25;22.02;;;6.57;;
25988;SDS011;13778;48.236;9.894;2023-10-09T15:48:18;16.70;;;6.65;;
25988;SDS011;13778;48.236;9.894;2023-10-09T15:51:10;21.63;;;7.05;;
25988;SDS011;13778;48.236;9.894;2023-10-09T15:54:03;24.02;;;6.65;;
25988;SDS011;13778;48.236;9.894;2023-10-09T15:56:54;17.65;;;5.10;;
25988;SDS011;13778;48.236;9.894;2023-10-09T15:59:45;19.30;;;6.35;;
25988;SDS011;13778;48.236;9.894;2023-10-09T16:02:36;22.67;;;5.63;;
25988;SDS011;13778;48.236;9.894;2023-10-09T16:05:26;19.98;;;6.13;;
25988;SDS011;13778;48.236;9.894;2023-10-09T16:08:17;15.45;;;4.93;;
25988;SDS011;13778;48.236;9.894;2023-10-09T16:11:08;18.08;;;5.30;;
25988;SDS011;13778;48.236;9.894;2023-10-09T16:13:59;21.55;;;6.13;;
25988;SDS011;13778;48.236;9.894;2023-10-09T16:16:51;17.55;;;4.97;;
25988;SDS011;13778;48.236;9.894;2023-10-09T16:19:44;24.27;;;5.88;;
25988;SDS011;13778;48.236;9.894;2023-10-09T16:22:35;26.35;;;7.07;;
25988;SDS011;13778;48.236;9.894;2023-10-09T16:25:25;24.02;;;7.25;;
25988;SDS011;13778;48.236;9.894;2023-10-09T16:28:16;22.42;;;6.65;;
25988;SDS011;13778;48.236;9.894;2023-10-09T16:31:06;26.23;;;6.65;;
25988;SDS011;13778;48.236;9.894;2023-10-09T16:34:04;16.35;;;5.50;;
25988;SDS011;13778;48.236;9.894;2023-10-09T16:36:56;32.25;;;7.70;;
25988;SDS011;13778;48.236;9.894;2023-10-09T16:39:46;19.63;;;5.80;;
25988;SDS011;13778;48.236;9.894;2023-10-09T16:42:37;27.83;;;7.22;;
25988;SDS011;13778;48.236;9.894;2023-10-09T16:45:29;26.02;;;5.72;;
25988;SDS011;13778;48.236;9.894;2023-10-09T16:48:25;27.02;;;6.63;;
25988;SDS011;13778;48.236;9.894;2023-10-09T16:51:18;20.55;;;6.70;;
25988;SDS011;13778;48.236;9.894;2023-10-09T16:54:10;31.98;;;6.43;;
25988;SDS011;13778;48.236;9.894;2023-10-09T16:57:04;22.83;;;6.75;;
25988;SDS011;13778;48.236;9.894;2023-10-09T16:59:57;19.63;;;6.38;;
25988;SDS011;13778;48.236;9.894;2023-10-09T17:02:48;26.33;;;7.93;;
25988;SDS011;13778;48.236;9.894;2023-10-09T17:05:41;26.17;;;11.32;;
25988;SDS011;13778;48.236;9.894;2023-10-09T17:08:45;22.70;;;8.13;;
25988;SDS011;13778;48.236;9.894;2023-10-09T17:11:38;20.17;;;9.07;;
25988;SDS011;13778;48.236;9.894;2023-10-09T17:14:28;22.83;;;8.95;;
25988;SDS011;13778;48.236;9.894;2023-10-09T17:17:18;22.08;;;7.90;;
25988;SDS011;13778;48.236;9.894;2023-10-09T17:20:10;29.40;;;7.25;;
25988;SDS011;13778;48.236;9.894;2023-10-09T17:23:01;19.55;;;6.90;;
25988;SDS011;13778;48.236;9.894;2023-10-09T17:25:53;18.80;;;5.57;;
25988;SDS011;13778;48.236;9.894;2023-10-09T17:28:46;17.23;;;6.70;;
25988;SDS011;13778;48.236;9.894;2023-10-09T17:31:37;24.88;;;6.85;;
25988;SDS011;13778;48.236;9.894;2023-10-09T17:34:28;20.10;;;5.65;;
25988;SDS011;13778;48.236;9.894;2023-10-09T17:37:21;21.40;;;6.45;;